McCoy, Colorado
Current Conditions -  °F | °C
As of 6:50 PM on Thursday 18 Dec 2014 (Local Time) from KEGE Reporting Station
Light Snow Light Snow  
Wind Chill: 30°   Ceiling: 2000
Heat Index: 30°   Visibility: 8mi
Dew Point: 28°   Wind: 0mph
Humidity: 93%   Direction: NA
Pressure: 30.15"   Gusts: NA
Location:  39.92°N, 106.73°W
Report Text: KEGE 190150Z 00000KT 8SM -SN BKN020 OVC030 M01/M02 A3015
Loading
Personal Weather Stations






























Interactive Weather Map New forecast layout! Learn more

10-Day Weather Forecast

Advertisements
Track Severe Weather on mobile